sensor_id;sensor_type;location;lat;lon;timestamp;pressure;altitude;pressure_sealevel;temperature;humidity
12215;BME280;6170;42.206;24.142;2023-04-01T00:01:13;97997.50;;;10.22;67.44
12215;BME280;6170;42.206;24.142;2023-04-01T00:03:40;98007.97;;;10.23;67.49
12215;BME280;6170;42.206;24.142;2023-04-01T00:06:08;97997.16;;;10.36;67.58
12215;BME280;6170;42.206;24.142;2023-04-01T00:08:35;97988.84;;;9.95;68.83
12215;BME280;6170;42.206;24.142;2023-04-01T00:11:02;97984.78;;;10.11;68.49
12215;BME280;6170;42.206;24.142;2023-04-01T00:13:29;98030.47;;;10.41;68.31
12215;BME280;6170;42.206;24.142;2023-04-01T00:15:58;97948.59;;;10.33;66.93
12215;BME280;6170;42.206;24.142;2023-04-01T00:18:27;97987.91;;;10.75;66.22
12215;BME280;6170;42.206;24.142;2023-04-01T00:20:54;98015.16;;;10.91;66.40
12215;BME280;6170;42.206;24.142;2023-04-01T00:23:21;97978.25;;;10.74;66.40
12215;BME280;6170;42.206;24.142;2023-04-01T00:25:48;97980.41;;;10.66;66.68
12215;BME280;6170;42.206;24.142;2023-04-01T00:28:16;97976.50;;;10.44;68.03
12215;BME280;6170;42.206;24.142;2023-04-01T00:30:43;97988.66;;;9.90;70.14
12215;BME280;6170;42.206;24.142;2023-04-01T00:33:11;97983.91;;;9.92;70.46
12215;BME280;6170;42.206;24.142;2023-04-01T00:35:39;97981.31;;;9.79;71.07
12215;BME280;6170;42.206;24.142;2023-04-01T00:38:07;97982.25;;;9.66;71.71
12215;BME280;6170;42.206;24.142;2023-04-01T00:40:38;97988.38;;;9.35;73.02
12215;BME280;6170;42.206;24.142;2023-04-01T00:43:11;97988.38;;;9.35;73.14
12215;BME280;6170;42.206;24.142;2023-04-01T00:45:39;97972.72;;;9.45;73.21
12215;BME280;6170;42.206;24.142;2023-04-01T00:48:10;97962.69;;;9.66;72.20
12215;BME280;6170;42.206;24.142;2023-04-01T00:50:40;97974.84;;;9.30;73.54
12215;BME280;6170;42.206;24.142;2023-04-01T00:53:09;97969.91;;;8.89;75.19
12215;BME280;6170;42.206;24.142;2023-04-01T00:55:40;97993.38;;;8.68;76.22
12215;BME280;6170;42.206;24.142;2023-04-01T00:58:12;98014.84;;;8.99;76.01
12215;BME280;6170;42.206;24.142;2023-04-01T01:00:40;97976.63;;;9.05;75.93
12215;BME280;6170;42.206;24.142;2023-04-01T01:03:08;97971.91;;;9.38;74.17
12215;BME280;6170;42.206;24.142;2023-04-01T01:08:35;97969.22;;;9.07;74.83
12215;BME280;6170;42.206;24.142;2023-04-01T01:11:08;98028.59;;;9.54;74.45
12215;BME280;6170;42.206;24.142;2023-04-01T01:13:43;98043.88;;;8.89;76.76
12215;BME280;6170;42.206;24.142;2023-04-01T01:16:16;97971.75;;;8.82;76.96
12215;BME280;6170;42.206;24.142;2023-04-01T01:18:50;97969.22;;;9.00;75.84
12215;BME280;6170;42.206;24.142;2023-04-01T01:24:40;97969.16;;;9.20;76.14
12215;BME280;6170;42.206;24.142;2023-04-01T01:27:10;97953.78;;;9.09;76.02
12215;BME280;6170;42.206;24.142;2023-04-01T01:30:02;97945.16;;;9.07;76.05
12215;BME280;6170;42.206;24.142;2023-04-01T01:35:40;97960.91;;;8.71;77.82
12215;BME280;6170;42.206;24.142;2023-04-01T01:38:14;97943.25;;;8.63;78.21
12215;BME280;6170;42.206;24.142;2023-04-01T01:40:44;97945.69;;;8.84;78.23
12215;BME280;6170;42.206;24.142;2023-04-01T01:43:14;97937.66;;;8.84;77.65
12215;BME280;6170;42.206;24.142;2023-04-01T01:45:44;97957.84;;;9.18;76.92
12215;BME280;6170;42.206;24.142;2023-04-01T01:48:13;97914.06;;;8.68;77.84
12215;BME280;6170;42.206;24.142;2023-04-01T01:50:44;97940.53;;;8.89;77.43
12215;BME280;6170;42.206;24.142;2023-04-01T01:53:13;97942.50;;;9.00;77.89
12215;BME280;6170;42.206;24.142;2023-04-01T01:55:42;97929.34;;;9.06;78.22
12215;BME280;6170;42.206;24.142;2023-04-01T01:58:12;97936.28;;;9.13;77.28
12215;BME280;6170;42.206;24.142;2023-04-01T02:00:41;97920.97;;;9.33;76.58
12215;BME280;6170;42.206;24.142;2023-04-01T02:03:11;97850.06;;;8.93;76.03
12215;BME280;6170;42.206;24.142;2023-04-01T02:05:39;97923.47;;;9.28;76.35
12215;BME280;6170;42.206;24.142;2023-04-01T02:08:12;97916.91;;;9.24;76.48
12215;BME280;6170;42.206;24.142;2023-04-01T02:10:44;97926.72;;;9.30;76.26
12215;BME280;6170;42.206;24.142;2023-04-01T02:13:19;97922.41;;;9.29;76.69
12215;BME280;6170;42.206;24.142;2023-04-01T02:15:53;97914.72;;;9.46;76.08
12215;BME280;6170;42.206;24.142;2023-04-01T02:18:23;97919.72;;;9.29;76.23
12215;BME280;6170;42.206;24.142;2023-04-01T02:20:51;97979.66;;;9.84;75.16
12215;BME280;6170;42.206;24.142;2023-04-01T02:23:20;97944.78;;;9.35;75.60
12215;BME280;6170;42.206;24.142;2023-04-01T02:25:47;97936.56;;;9.36;75.51
12215;BME280;6170;42.206;24.142;2023-04-01T02:28:14;97931.16;;;9.43;74.88
12215;BME280;6170;42.206;24.142;2023-04-01T02:30:47;97918.53;;;9.25;75.46
12215;BME280;6170;42.206;24.142;2023-04-01T02:33:17;97916.66;;;9.32;75.68
12215;BME280;6170;42.206;24.142;2023-04-01T02:35:44;97914.38;;;9.29;75.54
12215;BME280;6170;42.206;24.142;2023-04-01T02:38:11;97968.59;;;9.43;76.31
12215;BME280;6170;42.206;24.142;2023-04-01T02:40:47;97956.63;;;9.14;76.52
12215;BME280;6170;42.206;24.142;2023-04-01T02:43:15;97930.47;;;8.85;76.75
12215;BME280;6170;42.206;24.142;2023-04-01T02:45:42;97919.94;;;8.90;76.85
12215;BME280;6170;42.206;24.142;2023-04-01T02:48:10;97912.50;;;8.98;76.23
12215;BME280;6170;42.206;24.142;2023-04-01T02:50:38;97919.72;;;8.98;76.33
12215;BME280;6170;42.206;24.142;2023-04-01T02:53:05;97899.19;;;8.92;75.88
12215;BME280;6170;42.206;24.142;2023-04-01T02:55:32;97904.25;;;8.62;77.08
12215;BME280;6170;42.206;24.142;2023-04-01T02:58:01;97895.88;;;8.52;77.47
12215;BME280;6170;42.206;24.142;2023-04-01T03:00:29;97900.00;;;8.48;77.78
12215;BME280;6170;42.206;24.142;2023-04-01T03:02:56;97897.94;;;8.43;77.74
12215;BME280;6170;42.206;24.142;2023-04-01T03:05:23;97900.66;;;8.10;79.14
12215;BME280;6170;42.206;24.142;2023-04-01T03:07:51;97879.50;;;8.22;79.65
12215;BME280;6170;42.206;24.142;2023-04-01T03:10:18;97873.97;;;8.30;78.78
12215;BME280;6170;42.206;24.142;2023-04-01T03:12:45;97834.38;;;8.07;78.57
12215;BME280;6170;42.206;24.142;2023-04-01T03:15:13;97877.44;;;8.37;78.85
12215;BME280;6170;42.206;24.142;2023-04-01T03:17:41;97888.13;;;8.11;79.80
12215;BME280;6170;42.206;24.142;2023-04-01T03:20:10;97927.75;;;8.14;81.44
12215;BME280;6170;42.206;24.142;2023-04-01T03:22:37;97885.09;;;7.94;80.76
12215;BME280;6170;42.206;24.142;2023-04-01T03:25:05;97882.59;;;8.12;80.56
12215;BME280;6170;42.206;24.142;2023-04-01T03:27:33;97867.19;;;8.14;79.93
12215;BME280;6170;42.206;24.142;2023-04-01T03:30:00;97878.47;;;8.10;79.90
12215;BME280;6170;42.206;24.142;2023-04-01T03:32:29;97901.91;;;7.95;80.90
12215;BME280;6170;42.206;24.142;2023-04-01T03:34:56;97905.41;;;8.08;80.94
12215;BME280;6170;42.206;24.142;2023-04-01T03:37:23;97879.13;;;8.12;80.29
12215;BME280;6170;42.206;24.142;2023-04-01T03:39:51;97880.16;;;8.04;80.04
12215;BME280;6170;42.206;24.142;2023-04-01T03:42:18;97915.41;;;8.26;80.24
12215;BME280;6170;42.206;24.142;2023-04-01T03:44:45;97901.06;;;8.40;79.80
12215;BME280;6170;42.206;24.142;2023-04-01T03:47:12;97901.00;;;8.47;79.23
12215;BME280;6170;42.206;24.142;2023-04-01T03:49:40;97905.25;;;8.68;78.43
12215;BME280;6170;42.206;24.142;2023-04-01T03:52:09;97916.16;;;8.66;79.11
12215;BME280;6170;42.206;24.142;2023-04-01T03:54:36;97910.19;;;8.71;78.53
12215;BME280;6170;42.206;24.142;2023-04-01T03:57:03;97915.91;;;8.74;77.88
12215;BME280;6170;42.206;24.142;2023-04-01T03:59:31;97917.91;;;8.85;78.15
12215;BME280;6170;42.206;24.142;2023-04-01T04:01:58;97905.50;;;9.04;76.75
12215;BME280;6170;42.206;24.142;2023-04-01T04:04:25;97912.03;;;9.15;76.72
12215;BME280;6170;42.206;24.142;2023-04-01T04:06:54;97917.19;;;9.03;76.91
12215;BME280;6170;42.206;24.142;2023-04-01T04:09:21;97910.44;;;9.00;77.24
12215;BME280;6170;42.206;24.142;2023-04-01T04:11:49;97913.44;;;9.17;76.29
12215;BME280;6170;42.206;24.142;2023-04-01T04:14:16;97942.59;;;9.57;76.17
12215;BME280;6170;42.206;24.142;2023-04-01T04:16:43;97885.47;;;9.20;76.34
12215;BME280;6170;42.206;24.142;2023-04-01T04:19:11;97909.78;;;9.43;76.42
12215;BME280;6170;42.206;24.142;2023-04-01T04:21:39;97912.44;;;9.43;75.88
12215;BME280;6170;42.206;24.142;2023-04-01T04:24:08;97906.06;;;9.44;75.49
12215;BME280;6170;42.206;24.142;2023-04-01T04:26:35;97915.94;;;9.43;75.57
12215;BME280;6170;42.206;24.142;2023-04-01T04:29:02;97910.13;;;9.53;75.55
12215;BME280;6170;42.206;24.142;2023-04-01T04:31:29;97911.56;;;9.56;75.97
12215;BME280;6170;42.206;24.142;2023-04-01T04:33:58;97908.81;;;9.62;75.75
12215;BME280;6170;42.206;24.142;2023-04-01T04:36:25;97899.06;;;9.43;75.61
12215;BME280;6170;42.206;24.142;2023-04-01T04:38:53;97895.09;;;9.52;76.19
12215;BME280;6170;42.206;24.142;2023-04-01T04:41:21;97899.81;;;9.25;76.37
12215;BME280;6170;42.206;24.142;2023-04-01T04:43:50;97871.66;;;8.91;77.76
12215;BME280;6170;42.206;24.142;2023-04-01T04:46:18;97898.84;;;9.20;77.36
12215;BME280;6170;42.206;24.142;2023-04-01T04:48:45;97876.44;;;8.76;78.28
12215;BME280;6170;42.206;24.142;2023-04-01T04:51:14;97889.44;;;9.11;77.95
12215;BME280;6170;42.206;24.142;2023-04-01T04:53:41;97895.47;;;9.31;77.47
12215;BME280;6170;42.206;24.142;2023-04-01T04:56:08;97883.75;;;9.32;76.73
12215;BME280;6170;42.206;24.142;2023-04-01T04:58:37;97894.72;;;9.48;76.74
12215;BME280;6170;42.206;24.142;2023-04-01T05:01:08;97884.34;;;9.83;76.14
12215;BME280;6170;42.206;24.142;2023-04-01T05:03:36;97876.81;;;9.74;76.12
12215;BME280;6170;42.206;24.142;2023-04-01T05:06:04;97891.34;;;9.84;76.36
12215;BME280;6170;42.206;24.142;2023-04-01T05:08:31;97849.88;;;9.75;76.12
12215;BME280;6170;42.206;24.142;2023-04-01T05:10:59;97867.41;;;9.71;76.83
12215;BME280;6170;42.206;24.142;2023-04-01T05:13:26;97878.84;;;9.78;77.54
12215;BME280;6170;42.206;24.142;2023-04-01T05:15:55;97867.06;;;9.61;77.64
12215;BME280;6170;42.206;24.142;2023-04-01T05:18:22;97854.34;;;9.57;78.07
12215;BME280;6170;42.206;24.142;2023-04-01T05:20:50;97842.69;;;9.51;77.92
12215;BME280;6170;42.206;24.142;2023-04-01T05:23:18;97847.78;;;9.53;78.74
12215;BME280;6170;42.206;24.142;2023-04-01T05:25:46;97841.91;;;9.44;79.31
12215;BME280;6170;42.206;24.142;2023-04-01T05:28:14;97845.59;;;9.18;79.67
12215;BME280;6170;42.206;24.142;2023-04-01T05:30:41;97826.53;;;9.08;81.05
12215;BME280;6170;42.206;24.142;2023-04-01T05:33:11;97825.63;;;9.21;81.35
12215;BME280;6170;42.206;24.142;2023-04-01T05:35:39;97822.16;;;9.20;81.25
12215;BME280;6170;42.206;24.142;2023-04-01T05:38:06;97792.31;;;9.23;80.92
12215;BME280;6170;42.206;24.142;2023-04-01T05:40:34;97808.94;;;9.25;81.29
12215;BME280;6170;42.206;24.142;2023-04-01T05:43:01;97785.38;;;9.40;79.48
12215;BME280;6170;42.206;24.142;2023-04-01T05:45:28;97794.16;;;9.47;78.40
12215;BME280;6170;42.206;24.142;2023-04-01T05:47:55;97788.34;;;9.75;78.49
12215;BME280;6170;42.206;24.142;2023-04-01T05:50:24;97781.84;;;9.46;79.36
12215;BME280;6170;42.206;24.142;2023-04-01T05:52:51;97762.72;;;9.43;81.02
12215;BME280;6170;42.206;24.142;2023-04-01T05:55:18;97717.72;;;9.40;80.26
12215;BME280;6170;42.206;24.142;2023-04-01T05:57:45;97762.72;;;9.68;79.99
12215;BME280;6170;42.206;24.142;2023-04-01T06:00:14;97775.34;;;9.79;79.16
12215;BME280;6170;42.206;24.142;2023-04-01T06:02:42;97784.34;;;10.03;77.71
12215;BME280;6170;42.206;24.142;2023-04-01T06:05:15;97769.72;;;10.23;78.09
12215;BME280;6170;42.206;24.142;2023-04-01T06:07:45;97775.44;;;10.27;77.67
12215;BME280;6170;42.206;24.142;2023-04-01T06:10:14;97750.09;;;10.29;78.07
12215;BME280;6170;42.206;24.142;2023-04-01T06:12:55;97774.75;;;10.50;77.16
12215;BME280;6170;42.206;24.142;2023-04-01T06:15:36;97769.34;;;10.38;78.79
12215;BME280;6170;42.206;24.142;2023-04-01T06:24:19;97795.09;;;10.69;77.04
12215;BME280;6170;42.206;24.142;2023-04-01T06:26:53;97782.56;;;11.22;77.03
12215;BME280;6170;42.206;24.142;2023-04-01T06:29:47;97771.63;;;11.94;75.30
12215;BME280;6170;42.206;24.142;2023-04-01T06:32:26;97775.06;;;12.69;72.59
12215;BME280;6170;42.206;24.142;2023-04-01T06:35:17;97771.69;;;12.90;70.34
12215;BME280;6170;42.206;24.142;2023-04-01T06:38:02;97774.75;;;12.82;71.48
12215;BME280;6170;42.206;24.142;2023-04-01T06:40:50;97761.81;;;12.39;70.24
12215;BME280;6170;42.206;24.142;2023-04-01T06:43:25;97771.63;;;11.94;73.74
12215;BME280;6170;42.206;24.142;2023-04-01T06:45:59;97766.53;;;12.32;71.54
12215;BME280;6170;42.206;24.142;2023-04-01T06:51:23;97799.38;;;12.63;72.23
12215;BME280;6170;42.206;24.142;2023-04-01T06:53:57;97767.16;;;12.79;72.00
12215;BME280;6170;42.206;24.142;2023-04-01T06:56:30;97771.41;;;12.35;71.96
12215;BME280;6170;42.206;24.142;2023-04-01T06:59:01;97831.50;;;12.69;70.91
12215;BME280;6170;42.206;24.142;2023-04-01T07:01:33;97792.47;;;12.27;71.60
12215;BME280;6170;42.206;24.142;2023-04-01T07:04:05;97776.50;;;12.60;71.88
12215;BME280;6170;42.206;24.142;2023-04-01T07:06:36;97793.84;;;12.41;71.55
12215;BME280;6170;42.206;24.142;2023-04-01T07:09:06;97827.72;;;12.82;71.56
12215;BME280;6170;42.206;24.142;2023-04-01T07:11:38;97775.81;;;12.81;70.75
12215;BME280;6170;42.206;24.142;2023-04-01T07:14:12;97779.09;;;12.55;70.58
12215;BME280;6170;42.206;24.142;2023-04-01T07:16:44;97768.88;;;12.69;70.77
12215;BME280;6170;42.206;24.142;2023-04-01T07:19:18;97758.16;;;12.57;70.44
12215;BME280;6170;42.206;24.142;2023-04-01T07:21:49;97775.06;;;12.69;70.44
12215;BME280;6170;42.206;24.142;2023-04-01T07:24:21;97768.03;;;12.96;70.57
12215;BME280;6170;42.206;24.142;2023-04-01T07:26:54;97811.28;;;13.23;70.36
12215;BME280;6170;42.206;24.142;2023-04-01T07:29:22;97785.72;;;13.54;68.33
12215;BME280;6170;42.206;24.142;2023-04-01T07:32:09;97774.28;;;13.02;69.02
12215;BME280;6170;42.206;24.142;2023-04-01T07:34:42;97825.16;;;13.32;70.34
12215;BME280;6170;42.206;24.142;2023-04-01T07:37:15;97765.53;;;12.50;70.72
12215;BME280;6170;42.206;24.142;2023-04-01T07:39:51;97777.75;;;12.69;70.45
12215;BME280;6170;42.206;24.142;2023-04-01T07:42:29;97774.75;;;12.54;70.68
12215;BME280;6170;42.206;24.142;2023-04-01T07:45:05;97768.63;;;12.42;72.27
12215;BME280;6170;42.206;24.142;2023-04-01T07:47:50;97751.28;;;12.49;70.18
12215;BME280;6170;42.206;24.142;2023-04-01T07:50:25;97761.19;;;12.60;70.88
12215;BME280;6170;42.206;24.142;2023-04-01T07:53:04;97759.16;;;12.68;70.42
12215;BME280;6170;42.206;24.142;2023-04-01T07:55:36;97739.41;;;12.90;70.32
12215;BME280;6170;42.206;24.142;2023-04-01T07:58:14;97766.31;;;13.07;71.95
12215;BME280;6170;42.206;24.142;2023-04-01T08:00:48;97749.41;;;13.23;69.59
12215;BME280;6170;42.206;24.142;2023-04-01T08:03:30;97721.84;;;13.66;69.53
12215;BME280;6170;42.206;24.142;2023-04-01T08:06:00;97736.19;;;13.72;69.56
12215;BME280;6170;42.206;24.142;2023-04-01T08:08:39;97731.75;;;13.82;69.50
12215;BME280;6170;42.206;24.142;2023-04-01T08:11:21;97727.63;;;13.58;69.06
12215;BME280;6170;42.206;24.142;2023-04-01T08:13:59;97714.16;;;13.75;70.03
12215;BME280;6170;42.206;24.142;2023-04-01T08:16:33;97724.03;;;14.51;67.89
12215;BME280;6170;42.206;24.142;2023-04-01T08:19:09;97712.72;;;14.54;68.82
12215;BME280;6170;42.206;24.142;2023-04-01T08:21:43;97692.41;;;13.81;67.79
12215;BME280;6170;42.206;24.142;2023-04-01T08:24:20;97686.28;;;14.51;69.11
12215;BME280;6170;42.206;24.142;2023-04-01T08:26:53;97685.88;;;14.16;65.54
12215;BME280;6170;42.206;24.142;2023-04-01T08:29:25;97736.75;;;13.95;68.93
12215;BME280;6170;42.206;24.142;2023-04-01T08:31:57;97685.56;;;13.52;69.20
12215;BME280;6170;42.206;24.142;2023-04-01T08:34:30;97683.38;;;13.49;68.68
12215;BME280;6170;42.206;24.142;2023-04-01T08:37:01;97675.78;;;13.84;68.96
12215;BME280;6170;42.206;24.142;2023-04-01T08:39:34;97640.13;;;13.56;68.28
12215;BME280;6170;42.206;24.142;2023-04-01T08:42:18;97638.97;;;13.30;68.92
12215;BME280;6170;42.206;24.142;2023-04-01T08:45:17;97641.16;;;12.99;69.51
12215;BME280;6170;42.206;24.142;2023-04-01T08:48:05;97642.06;;;13.05;69.58
12215;BME280;6170;42.206;24.142;2023-04-01T08:51:03;97647.16;;;13.18;72.43
12215;BME280;6170;42.206;24.142;2023-04-01T08:53:47;97650.28;;;13.70;69.53
12215;BME280;6170;42.206;24.142;2023-04-01T08:56:20;97647.19;;;15.12;68.95
12215;BME280;6170;42.206;24.142;2023-04-01T08:58:59;97632.72;;;15.70;64.69
12215;BME280;6170;42.206;24.142;2023-04-01T09:02:03;97632.16;;;14.90;65.10
12215;BME280;6170;42.206;24.142;2023-04-01T09:04:51;97624.94;;;14.63;64.54
12215;BME280;6170;42.206;24.142;2023-04-01T09:07:35;97607.38;;;14.93;65.83
12215;BME280;6170;42.206;24.142;2023-04-01T09:10:32;97638.50;;;15.47;66.07
12215;BME280;6170;42.206;24.142;2023-04-01T09:13:13;97619.50;;;15.32;63.67
12215;BME280;6170;42.206;24.142;2023-04-01T09:15:54;97622.72;;;15.66;62.82
12215;BME280;6170;42.206;24.142;2023-04-01T09:18:57;97610.28;;;15.23;64.16
12215;BME280;6170;42.206;24.142;2023-04-01T09:24:56;97631.28;;;15.53;62.75
12215;BME280;6170;42.206;24.142;2023-04-01T09:27:29;97613.94;;;15.07;62.69
12215;BME280;6170;42.206;24.142;2023-04-01T09:30:24;97666.47;;;15.31;65.86
12215;BME280;6170;42.206;24.142;2023-04-01T09:36:12;97591.19;;;14.61;66.27
12215;BME280;6170;42.206;24.142;2023-04-01T09:38:54;97597.69;;;14.97;65.49
12215;BME280;6170;42.206;24.142;2023-04-01T09:41:29;97583.03;;;14.24;65.62
12215;BME280;6170;42.206;24.142;2023-04-01T09:44:03;97554.47;;;14.23;66.63
12215;BME280;6170;42.206;24.142;2023-04-01T09:46:55;97565.44;;;14.38;68.25
12215;BME280;6170;42.206;24.142;2023-04-01T09:49:38;97569.28;;;14.52;66.62
12215;BME280;6170;42.206;24.142;2023-04-01T09:52:18;97548.78;;;14.46;66.57
12215;BME280;6170;42.206;24.142;2023-04-01T09:55:21;97531.41;;;14.05;67.63
12215;BME280;6170;42.206;24.142;2023-04-01T09:58:17;97546.72;;;14.95;67.43
12215;BME280;6170;42.206;24.142;2023-04-01T10:01:08;97537.03;;;14.99;67.00
12215;BME280;6170;42.206;24.142;2023-04-01T10:07:08;97522.72;;;14.99;64.57
12215;BME280;6170;42.206;24.142;2023-04-01T10:09:55;97548.84;;;16.12;67.49
12215;BME280;6170;42.206;24.142;2023-04-01T10:12:49;97500.72;;;16.04;63.64
12215;BME280;6170;42.206;24.142;2023-04-01T10:15:38;97513.47;;;16.75;63.06
12215;BME280;6170;42.206;24.142;2023-04-01T10:18:29;97499.88;;;17.10;62.58
12215;BME280;6170;42.206;24.142;2023-04-01T10:21:25;97498.06;;;16.20;60.51
12215;BME280;6170;42.206;24.142;2023-04-01T10:24:20;97538.84;;;17.04;57.14
12215;BME280;6170;42.206;24.142;2023-04-01T10:27:16;97479.66;;;16.77;60.75
12215;BME280;6170;42.206;24.142;2023-04-01T10:30:13;97469.09;;;16.86;59.51
12215;BME280;6170;42.206;24.142;2023-04-01T10:33:10;97468.03;;;16.26;58.87
12215;BME280;6170;42.206;24.142;2023-04-01T10:36:21;97481.84;;;16.55;60.75
12215;BME280;6170;42.206;24.142;2023-04-01T10:45:24;97496.63;;;17.82;56.47
12215;BME280;6170;42.206;24.142;2023-04-01T10:48:22;97458.78;;;18.06;57.60
12215;BME280;6170;42.206;24.142;2023-04-01T10:51:15;97454.41;;;18.10;54.84
12215;BME280;6170;42.206;24.142;2023-04-01T10:53:46;97490.91;;;17.84;54.50
12215;BME280;6170;42.206;24.142;2023-04-01T10:56:40;97453.00;;;18.18;56.02
12215;BME280;6170;42.206;24.142;2023-04-01T11:02:38;97454.06;;;18.51;53.08
12215;BME280;6170;42.206;24.142;2023-04-01T11:21:03;97422.38;;;15.94;58.73
12215;BME280;6170;42.206;24.142;2023-04-01T11:24:03;97416.44;;;16.33;58.46
12215;BME280;6170;42.206;24.142;2023-04-01T11:26:42;97450.50;;;16.24;59.40
12215;BME280;6170;42.206;24.142;2023-04-01T11:29:49;97432.09;;;16.41;58.76
12215;BME280;6170;42.206;24.142;2023-04-01T11:32:31;97408.03;;;16.29;58.26
12215;BME280;6170;42.206;24.142;2023-04-01T11:35:25;97405.09;;;16.05;58.06
12215;BME280;6170;42.206;24.142;2023-04-01T11:38:05;97411.28;;;16.21;57.88
12215;BME280;6170;42.206;24.142;2023-04-01T11:40:41;97405.91;;;15.91;59.96
12215;BME280;6170;42.206;24.142;2023-04-01T11:43:18;97401.00;;;16.33;58.47
12215;BME280;6170;42.206;24.142;2023-04-01T11:45:55;97401.81;;;16.39;58.97
12215;BME280;6170;42.206;24.142;2023-04-01T11:48:40;97394.56;;;16.04;58.66
12215;BME280;6170;42.206;24.142;2023-04-01T11:51:25;97388.84;;;16.36;58.07
12215;BME280;6170;42.206;24.142;2023-04-01T11:54:03;97371.50;;;16.52;57.95
12215;BME280;6170;42.206;24.142;2023-04-01T11:56:44;97366.34;;;16.66;57.77
12215;BME280;6170;42.206;24.142;2023-04-01T11:59:43;97383.13;;;16.63;59.24
12215;BME280;6170;42.206;24.142;2023-04-01T12:02:22;97364.19;;;17.27;58.61
12215;BME280;6170;42.206;24.142;2023-04-01T12:05:24;97354.50;;;17.99;57.60
12215;BME280;6170;42.206;24.142;2023-04-01T12:08:07;97354.72;;;17.29;57.25
12215;BME280;6170;42.206;24.142;2023-04-01T12:10:39;97349.50;;;17.38;55.76
12215;BME280;6170;42.206;24.142;2023-04-01T12:13:17;97345.16;;;16.93;58.17
12215;BME280;6170;42.206;24.142;2023-04-01T12:15:57;97388.59;;;16.37;58.54
12215;BME280;6170;42.206;24.142;2023-04-01T12:18:34;97360.66;;;16.72;59.10
12215;BME280;6170;42.206;24.142;2023-04-01T12:21:14;97334.47;;;16.63;58.41
12215;BME280;6170;42.206;24.142;2023-04-01T12:24:04;97340.19;;;16.41;58.96
12215;BME280;6170;42.206;24.142;2023-04-01T12:26:47;97320.22;;;16.32;59.67
12215;BME280;6170;42.206;24.142;2023-04-01T12:29:42;97315.03;;;16.45;59.15
12215;BME280;6170;42.206;24.142;2023-04-01T12:32:20;97316.59;;;16.67;59.63
12215;BME280;6170;42.206;24.142;2023-04-01T12:35:02;97304.31;;;16.89;58.49
12215;BME280;6170;42.206;24.142;2023-04-01T12:37:39;97297.34;;;16.78;59.45
12215;BME280;6170;42.206;24.142;2023-04-01T12:40:28;97309.50;;;16.81;57.04
12215;BME280;6170;42.206;24.142;2023-04-01T12:46:05;97302.53;;;17.19;57.70
12215;BME280;6170;42.206;24.142;2023-04-01T12:51:44;97336.31;;;17.26;57.72
12215;BME280;6170;42.206;24.142;2023-04-01T12:54:34;97378.34;;;17.14;58.68
12215;BME280;6170;42.206;24.142;2023-04-01T12:57:21;97450.97;;;16.51;59.02
12215;BME280;6170;42.206;24.142;2023-04-01T13:00:05;97467.53;;;16.19;59.80
12215;BME280;6170;42.206;24.142;2023-04-01T13:02:49;97416.44;;;16.17;59.06
12215;BME280;6170;42.206;24.142;2023-04-01T13:05:41;97449.66;;;15.98;60.29
12215;BME280;6170;42.206;24.142;2023-04-01T13:08:30;97459.63;;;15.82;61.71
12215;BME280;6170;42.206;24.142;2023-04-01T13:11:09;97479.59;;;15.76;63.04
12215;BME280;6170;42.206;24.142;2023-04-01T13:14:07;97478.97;;;15.49;67.21
12215;BME280;6170;42.206;24.142;2023-04-01T13:16:45;97472.81;;;15.53;68.57
12215;BME280;6170;42.206;24.142;2023-04-01T13:19:19;97476.47;;;15.22;69.25
12215;BME280;6170;42.206;24.142;2023-04-01T13:21:50;97521.63;;;14.95;71.92
12215;BME280;6170;42.206;24.142;2023-04-01T13:24:39;97509.28;;;14.62;74.97
12215;BME280;6170;42.206;24.142;2023-04-01T13:27:14;97519.72;;;14.53;76.72
12215;BME280;6170;42.206;24.142;2023-04-01T13:29:47;97523.81;;;14.56;76.97
12215;BME280;6170;42.206;24.142;2023-04-01T13:32:24;97547.97;;;14.46;77.76
12215;BME280;6170;42.206;24.142;2023-04-01T13:35:10;97557.63;;;14.73;78.72
12215;BME280;6170;42.206;24.142;2023-04-01T13:37:52;97529.53;;;14.64;79.09
12215;BME280;6170;42.206;24.142;2023-04-01T13:40:34;97506.53;;;14.57;80.20
12215;BME280;6170;42.206;24.142;2023-04-01T13:43:12;97472.88;;;14.59;81.97
12215;BME280;6170;42.206;24.142;2023-04-01T13:45:53;97464.09;;;14.79;84.30
12215;BME280;6170;42.206;24.142;2023-04-01T13:48:32;97484.16;;;14.98;85.77
12215;BME280;6170;42.206;24.142;2023-04-01T13:51:19;97510.19;;;15.24;84.74
12215;BME280;6170;42.206;24.142;2023-04-01T13:54:22;97477.91;;;14.93;86.33
12215;BME280;6170;42.206;24.142;2023-04-01T13:57:07;97450.09;;;14.87;85.24
12215;BME280;6170;42.206;24.142;2023-04-01T13:59:57;97446.94;;;15.00;84.01
12215;BME280;6170;42.206;24.142;2023-04-01T14:02:45;97431.88;;;15.14;81.90
12215;BME280;6170;42.206;24.142;2023-04-01T14:05:40;97420.06;;;15.36;81.85
12215;BME280;6170;42.206;24.142;2023-04-01T14:08:25;97437.28;;;15.14;83.17
12215;BME280;6170;42.206;24.142;2023-04-01T14:11:07;97441.22;;;14.92;83.92
12215;BME280;6170;42.206;24.142;2023-04-01T14:13:43;97443.97;;;15.02;84.50
12215;BME280;6170;42.206;24.142;2023-04-01T14:16:32;97484.16;;;14.98;84.48
12215;BME280;6170;42.206;24.142;2023-04-01T14:19:11;97483.69;;;14.69;85.55
12215;BME280;6170;42.206;24.142;2023-04-01T14:21:57;97441.66;;;14.68;85.18
12215;BME280;6170;42.206;24.142;2023-04-01T14:24:52;97429.38;;;14.46;85.66
12215;BME280;6170;42.206;24.142;2023-04-01T14:27:44;97424.72;;;14.83;85.70
12215;BME280;6170;42.206;24.142;2023-04-01T14:33:30;97442.09;;;15.02;85.58
12215;BME280;6170;42.206;24.142;2023-04-01T14:36:16;97416.28;;;15.21;85.78
12215;BME280;6170;42.206;24.142;2023-04-01T14:38:54;97413.44;;;15.53;83.76
12215;BME280;6170;42.206;24.142;2023-04-01T14:41:40;97434.00;;;16.30;81.13
12215;BME280;6170;42.206;24.142;2023-04-01T14:44:22;97428.44;;;15.29;80.47
12215;BME280;6170;42.206;24.142;2023-04-01T14:50:06;97429.72;;;15.11;81.43
12215;BME280;6170;42.206;24.142;2023-04-01T14:52:38;97458.09;;;15.24;80.98
12215;BME280;6170;42.206;24.142;2023-04-01T14:55:20;97422.69;;;15.05;81.33
12215;BME280;6170;42.206;24.142;2023-04-01T14:57:59;97464.00;;;15.16;81.83